Time,TemperatureF,DewpointF,PressureIn,WindDirection,WindDirectionDegrees,WindSpeedMPH,WindSpeedGustMPH,Humidity,HourlyPrecipIn,Conditions,Clouds,dailyrainin,SoftwareType,DateUTC
2013-06-29 00:05:00,82.2,56.0,29.78,North,10,1.0,-999.0,41,-99.99,,,0.00,weatherlink.com 1.10,2013-06-29 05:05:00,
2013-06-29 00:20:00,81.6,56.0,29.78,North,10,1.0,-999.0,42,-99.99,,,0.00,weatherlink.com 1.10,2013-06-29 05:20:00,
2013-06-29 00:35:00,80.7,57.0,29.79,North,11,0.0,-999.0,44,-99.99,,,0.00,weatherlink.com 1.10,2013-06-29 05:35:00,
2013-06-29 00:50:00,80.1,57.0,29.78,NNE,12,2.0,-999.0,45,-99.99,,,0.00,weatherlink.com 1.10,2013-06-29 05:50:00,
2013-06-29 01:05:00,79.6,58.0,29.79,North,349,0.0,-999.0,47,-99.99,,,0.00,weatherlink.com 1.10,2013-06-29 06:05:00,
2013-06-29 01:20:00,79.2,58.0,29.79,North,349,0.0,-999.0,48,-99.99,,,0.00,weatherlink.com 1.10,2013-06-29 06:20:00,
2013-06-29 01:35:00,78.5,58.0,29.80,North,349,1.0,-999.0,50,-99.99,,,0.00,weatherlink.com 1.10,2013-06-29 06:35:00,
2013-06-29 01:58:00,77.4,58.0,29.80,NNE,24,3.0,-999.0,51,-99.99,,,0.00,weatherlink.com 1.10,2013-06-29 06:58:00,
2013-06-29 02:05:00,77.4,58.0,29.80,NNE,32,5.0,-999.0,51,-99.99,,,0.00,weatherlink.com 1.10,2013-06-29 07:05:00,
2013-06-29 02:20:00,76.8,58.0,29.80,NNE,31,2.0,-999.0,52,-99.99,,,0.00,weatherlink.com 1.10,2013-06-29 07:20:00,
2013-06-29 02:35:00,76.7,58.0,29.81,NNE,31,1.0,-999.0,53,-99.99,,,0.00,weatherlink.com 1.10,2013-06-29 07:35:00,
2013-06-29 02:50:00,76.3,58.0,29.81,NNE,31,0.0,-999.0,53,-99.99,,,0.00,weatherlink.com 1.10,2013-06-29 07:50:00,
2013-06-29 03:05:00,76.1,58.0,29.82,NNE,31,0.0,-999.0,53,-99.99,,,0.00,weatherlink.com 1.10,2013-06-29 08:05:00,
2013-06-29 03:20:00,76.0,58.0,29.82,NNE,31,0.0,-999.0,54,-99.99,,,0.00,weatherlink.com 1.10,2013-06-29 08:20:00,
2013-06-29 03:35:00,75.4,58.0,29.82,NNE,31,0.0,-999.0,55,-99.99,,,0.00,weatherlink.com 1.10,2013-06-29 08:35:00,
2013-06-29 03:50:00,75.1,58.0,29.82,NNE,31,0.0,-999.0,56,-99.99,,,0.00,weatherlink.com 1.10,2013-06-29 08:50:00,
2013-06-29 04:05:00,74.7,58.0,29.82,NNE,31,0.0,-999.0,57,-99.99,,,0.00,weatherlink.com 1.10,2013-06-29 09:05:00,
2013-06-29 04:20:00,74.4,58.0,29.82,NNE,31,0.0,-999.0,57,-99.99,,,0.00,weatherlink.com 1.10,2013-06-29 09:20:00,
2013-06-29 04:35:00,74.0,58.0,29.83,NNE,31,0.0,-999.0,58,-99.99,,,0.00,weatherlink.com 1.10,2013-06-29 09:35:00,
2013-06-29 04:50:00,73.7,58.0,29.83,NNE,31,0.0,-999.0,59,-99.99,,,0.00,weatherlink.com 1.10,2013-06-29 09:50:00,
2013-06-29 05:05:00,73.5,58.0,29.83,NNE,31,0.0,-999.0,59,-99.99,,,0.00,weatherlink.com 1.10,2013-06-29 10:05:00,
2013-06-29 05:20:00,73.3,58.0,29.83,NNE,31,0.0,-999.0,59,-99.99,,,0.00,weatherlink.com 1.10,2013-06-29 10:20:00,
2013-06-29 05:35:00,73.3,58.0,29.83,NNE,31,0.0,-999.0,60,-99.99,,,0.00,weatherlink.com 1.10,2013-06-29 10:35:00,
2013-06-29 05:50:00,73.0,58.0,29.83,NNE,31,0.0,-999.0,60,-99.99,,,0.00,weatherlink.com 1.10,2013-06-29 10:50:00,
2013-06-29 06:05:00,72.7,58.0,29.83,NNE,31,0.0,-999.0,61,-99.99,,,0.00,weatherlink.com 1.10,2013-06-29 11:05:00,
2013-06-29 06:20:00,72.5,58.0,29.83,NNE,30,0.0,-999.0,61,-99.99,,,0.00,weatherlink.com 1.10,2013-06-29 11:20:00,
2013-06-29 06:35:00,72.7,58.0,29.83,NNE,30,0.0,-999.0,60,-99.99,,,0.00,weatherlink.com 1.10,2013-06-29 11:35:00,
2013-06-29 06:50:00,73.2,58.0,29.84,NNE,30,0.0,-999.0,60,-99.99,,,0.00,weatherlink.com 1.10,2013-06-29 11:50:00,
2013-06-29 07:05:00,73.7,59.0,29.83,NNE,12,0.0,-999.0,60,-99.99,,,0.00,weatherlink.com 1.10,2013-06-29 12:05:00,
2013-06-29 07:20:00,74.4,59.0,29.84,NW,319,4.0,-999.0,59,-99.99,,,0.00,weatherlink.com 1.10,2013-06-29 12:20:00,
2013-06-29 07:35:00,74.9,59.0,29.83,NNW,334,1.0,-999.0,57,-99.99,,,0.00,weatherlink.com 1.10,2013-06-29 12:35:00,
2013-06-29 07:50:00,76.0,58.0,29.84,NW,317,2.0,-999.0,54,-99.99,,,0.00,weatherlink.com 1.10,2013-06-29 12:50:00,
2013-06-29 08:05:00,76.7,58.0,29.84,WNW,296,1.0,-999.0,53,-99.99,,,0.00,weatherlink.com 1.10,2013-06-29 13:05:00,
2013-06-29 08:20:00,77.2,58.0,29.84,NNW,338,7.0,-999.0,52,-99.99,,,0.00,weatherlink.com 1.10,2013-06-29 13:20:00,
2013-06-29 08:35:00,78.5,59.0,29.84,WNW,300,4.0,-999.0,51,-99.99,,,0.00,weatherlink.com 1.10,2013-06-29 13:35:00,
2013-06-29 08:50:00,79.9,59.0,29.84,NNW,338,1.0,-999.0,49,-99.99,,,0.00,weatherlink.com 1.10,2013-06-29 13:50:00,
2013-06-29 09:05:00,81.1,58.0,29.84,NNE,28,2.0,-999.0,46,-99.99,,,0.00,weatherlink.com 1.10,2013-06-29 14:05:00,
2013-06-29 09:20:00,82.2,58.0,29.84,North,360,5.0,-999.0,44,-99.99,,,0.00,weatherlink.com 1.10,2013-06-29 14:20:00,
2013-06-29 09:35:00,83.2,58.0,29.84,WNW,284,3.0,-999.0,42,-99.99,,,0.00,weatherlink.com 1.10,2013-06-29 14:35:00,
2013-06-29 09:50:00,84.1,58.0,29.84,NW,320,1.0,-999.0,41,-99.99,,,0.00,weatherlink.com 1.10,2013-06-29 14:50:00,
2013-06-29 10:05:00,83.8,58.0,29.84,NW,317,3.0,-999.0,41,-99.99,,,0.00,weatherlink.com 1.10,2013-06-29 15:05:00,
2013-06-29 10:20:00,85.9,56.0,29.84,North,355,5.0,-999.0,36,-99.99,,,0.00,weatherlink.com 1.10,2013-06-29 15:20:00,
2013-06-29 10:35:00,86.1,55.0,29.84,West,281,2.0,-999.0,35,-99.99,,,0.00,weatherlink.com 1.10,2013-06-29 15:35:00,
2013-06-29 10:50:00,85.9,54.0,29.84,NW,307,6.0,-999.0,34,-99.99,,,0.00,weatherlink.com 1.10,2013-06-29 15:50:00,
2013-06-29 11:05:00,87.2,49.0,29.83,NW,321,11.0,-999.0,27,-99.99,,,0.00,weatherlink.com 1.10,2013-06-29 16:05:00,
2013-06-29 11:20:00,87.4,50.0,29.83,NW,325,5.0,-999.0,28,-99.99,,,0.00,weatherlink.com 1.10,2013-06-29 16:20:00,
2013-06-29 11:35:00,87.2,50.0,29.83,NW,306,5.0,-999.0,28,-99.99,,,0.00,weatherlink.com 1.10,2013-06-29 16:35:00,
2013-06-29 11:50:00,87.8,51.0,29.83,North,349,8.0,-999.0,28,-99.99,,,0.00,weatherlink.com 1.10,2013-06-29 16:50:00,
2013-06-29 12:05:00,89.0,51.0,29.82,NW,318,3.0,-999.0,27,-99.99,,,0.00,weatherlink.com 1.10,2013-06-29 17:05:00,
2013-06-29 12:20:00,90.3,51.0,29.82,NW,318,10.0,-999.0,26,-99.99,,,0.00,weatherlink.com 1.10,2013-06-29 17:20:00,
2013-06-29 12:35:00,89.5,51.0,29.82,NNW,337,10.0,-999.0,27,-99.99,,,0.00,weatherlink.com 1.10,2013-06-29 17:35:00,
2013-06-29 12:50:00,89.7,52.0,29.82,North,355,15.0,-999.0,27,-99.99,,,0.00,weatherlink.com 1.10,2013-06-29 17:50:00,
2013-06-29 13:05:00,89.5,51.0,29.81,North,5,12.0,-999.0,27,-99.99,,,0.00,weatherlink.com 1.10,2013-06-29 18:05:00,
2013-06-29 13:20:00,90.1,51.0,29.81,North,360,11.0,-999.0,26,-99.99,,,0.00,weatherlink.com 1.10,2013-06-29 18:20:00,
2013-06-29 13:35:00,90.1,51.0,29.80,NNW,348,11.0,-999.0,26,-99.99,,,0.00,weatherlink.com 1.10,2013-06-29 18:35:00,
2013-06-29 13:50:00,91.0,52.0,29.80,North,355,9.0,-999.0,26,-99.99,,,0.00,weatherlink.com 1.10,2013-06-29 18:50:00,
2013-06-29 14:06:00,91.2,51.0,29.80,NNW,340,14.0,-999.0,25,-99.99,,,0.00,weatherlink.com 1.10,2013-06-29 19:06:00,
2013-06-29 14:21:00,91.8,51.0,29.79,NW,320,6.0,-999.0,25,-99.99,,,0.00,weatherlink.com 1.10,2013-06-29 19:21:00,
2013-06-29 14:36:00,91.6,51.0,29.79,NNW,327,13.0,-999.0,25,-99.99,,,0.00,weatherlink.com 1.10,2013-06-29 19:36:00,
2013-06-29 14:51:00,92.5,51.0,29.79,North,355,10.0,-999.0,24,-99.99,,,0.00,weatherlink.com 1.10,2013-06-29 19:51:00,
2013-06-29 15:06:00,92.3,51.0,29.78,NNE,15,7.0,-999.0,24,-99.99,,,0.00,weatherlink.com 1.10,2013-06-29 20:06:00,
2013-06-29 15:21:00,92.9,51.0,29.78,NNE,13,6.0,-999.0,24,-99.99,,,0.00,weatherlink.com 1.10,2013-06-29 20:21:00,
2013-06-29 15:36:00,92.7,51.0,29.78,NNW,338,0.0,-999.0,24,-99.99,,,0.00,weatherlink.com 1.10,2013-06-29 20:36:00,
2013-06-29 15:51:00,93.2,51.0,29.77,NNW,338,14.0,-999.0,24,-99.99,,,0.00,weatherlink.com 1.10,2013-06-29 20:51:00,
2013-06-29 16:06:00,93.2,51.0,29.77,NNE,14,4.0,-999.0,24,-99.99,,,0.00,weatherlink.com 1.10,2013-06-29 21:06:00,
2013-06-29 16:21:00,92.3,52.0,29.77,NNW,346,10.0,-999.0,25,-99.99,,,0.00,weatherlink.com 1.10,2013-06-29 21:21:00,
2013-06-29 16:36:00,91.2,52.0,29.77,NNE,13,11.0,-999.0,26,-99.99,,,0.00,weatherlink.com 1.10,2013-06-29 21:36:00,
2013-06-29 16:51:00,92.1,52.0,29.76,NNE,13,17.0,-999.0,25,-99.99,,,0.00,weatherlink.com 1.10,2013-06-29 21:51:00,
2013-06-29 17:06:00,92.5,52.0,29.75,North,350,9.0,-999.0,25,-99.99,,,0.00,weatherlink.com 1.10,2013-06-29 22:06:00,
2013-06-29 17:21:00,91.6,51.0,29.75,NNE,24,17.0,-999.0,25,-99.99,,,0.00,weatherlink.com 1.10,2013-06-29 22:21:00,
2013-06-29 17:36:00,91.4,52.0,29.75,NNW,348,4.0,-999.0,26,-99.99,,,0.00,weatherlink.com 1.10,2013-06-29 22:36:00,
2013-06-29 17:51:00,91.6,52.0,29.74,NW,319,8.0,-999.0,26,-99.99,,,0.00,weatherlink.com 1.10,2013-06-29 22:51:00,
2013-06-29 18:06:00,91.8,52.0,29.74,North,355,13.0,-999.0,26,-99.99,,,0.00,weatherlink.com 1.10,2013-06-29 23:06:00,
2013-06-29 18:21:00,91.4,52.0,29.73,North,5,5.0,-999.0,26,-99.99,,,0.00,weatherlink.com 1.10,2013-06-29 23:21:00,
2013-06-29 18:36:00,91.6,53.0,29.73,North,360,14.0,-999.0,27,-99.99,,,0.00,weatherlink.com 1.10,2013-06-29 23:36:00,
2013-06-29 18:51:00,91.2,53.0,29.73,North,355,5.0,-999.0,27,-99.99,,,0.00,weatherlink.com 1.10,2013-06-29 23:51:00,
2013-06-29 19:06:00,90.3,53.0,29.73,NNE,22,3.0,-999.0,28,-99.99,,,0.00,weatherlink.com 1.10,2013-06-30 00:06:00,
2013-06-29 19:21:00,89.5,52.0,29.73,NNW,343,2.0,-999.0,28,-99.99,,,0.00,weatherlink.com 1.10,2013-06-30 00:21:00,
2013-06-29 19:36:00,89.0,53.0,29.73,North,360,1.0,-999.0,29,-99.99,,,0.00,weatherlink.com 1.10,2013-06-30 00:36:00,
2013-06-29 19:51:00,88.4,53.0,29.73,NNE,28,3.0,-999.0,30,-99.99,,,0.00,weatherlink.com 1.10,2013-06-30 00:51:00,
2013-06-29 20:06:00,87.8,54.0,29.73,North,9,4.0,-999.0,31,-99.99,,,0.00,weatherlink.com 1.10,2013-06-30 01:06:00,
2013-06-29 20:21:00,87.0,54.0,29.73,NNE,27,11.0,-999.0,32,-99.99,,,0.00,weatherlink.com 1.10,2013-06-30 01:21:00,
2013-06-29 20:36:00,85.7,53.0,29.74,North,5,4.0,-999.0,33,-99.99,,,0.00,weatherlink.com 1.10,2013-06-30 01:36:00,
2013-06-29 20:51:00,85.1,54.0,29.74,NNE,24,7.0,-999.0,34,-99.99,,,0.00,weatherlink.com 1.10,2013-06-30 01:51:00,
2013-06-29 21:06:00,84.3,53.0,29.75,North,355,2.0,-999.0,34,-99.99,,,0.00,weatherlink.com 1.10,2013-06-30 02:06:00,
2013-06-29 21:21:00,83.6,53.0,29.75,NNE,20,5.0,-999.0,35,-99.99,,,0.00,weatherlink.com 1.10,2013-06-30 02:21:00,
2013-06-29 21:36:00,83.0,53.0,29.76,NNE,15,3.0,-999.0,35,-99.99,,,0.00,weatherlink.com 1.10,2013-06-30 02:36:00,
2013-06-29 21:51:00,82.2,52.0,29.77,North,11,5.0,-999.0,35,-99.99,,,0.00,weatherlink.com 1.10,2013-06-30 02:51:00,
2013-06-29 22:06:00,81.8,52.0,29.77,NNE,26,3.0,-999.0,35,-99.99,,,0.00,weatherlink.com 1.10,2013-06-30 03:06:00,
2013-06-29 22:21:00,81.2,51.0,29.77,North,355,4.0,-999.0,35,-99.99,,,0.00,weatherlink.com 1.10,2013-06-30 03:21:00,
2013-06-29 22:36:00,80.7,51.0,29.78,NNE,19,0.0,-999.0,36,-99.99,,,0.00,weatherlink.com 1.10,2013-06-30 03:36:00,
2013-06-29 22:51:00,80.1,51.0,29.78,North,5,1.0,-999.0,37,-99.99,,,0.00,weatherlink.com 1.10,2013-06-30 03:51:00,
2013-06-29 23:06:00,79.6,52.0,29.79,North,355,0.0,-999.0,38,-99.99,,,0.00,weatherlink.com 1.10,2013-06-30 04:06:00,
2013-06-29 23:21:00,79.0,52.0,29.79,North,9,2.0,-999.0,39,-99.99,,,0.00,weatherlink.com 1.10,2013-06-30 04:21:00,
2013-06-29 23:36:00,78.5,51.0,29.79,North,355,2.0,-999.0,38,-99.99,,,0.00,weatherlink.com 1.10,2013-06-30 04:36:00,
2013-06-29 23:51:00,78.3,51.0,29.79,North,360,1.0,-999.0,38,-99.99,,,0.00,weatherlink.com 1.10,2013-06-30 04:51:00,